Time;durP1;ratioP1;P1;durP2;ratioP2;P2;SDS_P1;SDS_P2;PMS_P1;PMS_P2;Temp;Humidity;BMP_temperature;BMP_pressure;BME280_temperature;BME280_humidity;BME280_pressure;Samples;Min_cycle;Max_cycle;Signal;HPM_P1;HPM_P2
2023/07/13 00:00:33;;;;;;;13.50;5.38;;;23.20;99.90;;;;;;4989140;28;20058;-81
2023/07/13 00:02:59;;;;;;;10.68;5.45;;;23.10;99.90;;;;;;4989297;28;20090;-82
2023/07/13 00:05:25;;;;;;;12.60;5.97;;;23.10;99.90;;;;;;4988896;28;20026;-80
2023/07/13 00:07:51;;;;;;;10.02;6.40;;;23.10;99.90;;;;;;4972392;28;20042;-82
2023/07/13 00:10:17;;;;;;;7.95;5.70;;;23.10;99.90;;;;;;4972204;28;20031;-81
2023/07/13 00:12:44;;;;;;;6.95;5.07;;;23.10;99.90;;;;;;4971602;28;20113;-81
2023/07/13 00:15:16;;;;;;;14.85;5.60;;;23.20;99.90;;;;;;4988377;28;20043;-79
2023/07/13 00:17:44;;;;;;;10.23;4.97;;;23.20;99.90;;;;;;4970700;28;20026;-79
2023/07/13 00:20:10;;;;;;;8.15;4.65;;;23.20;99.90;;;;;;4970698;28;20082;-80
2023/07/13 00:22:36;;;;;;;7.28;4.32;;;23.20;99.90;;;;;;4971214;28;20371;-80
2023/07/13 00:25:02;;;;;;;12.27;5.03;;;23.20;99.90;;;;;;4988412;28;20084;-81
2023/07/13 00:27:31;;;;;;;8.55;3.70;;;23.30;99.90;;;;;;4971480;28;20046;-81
2023/07/13 00:29:57;;;;;;;6.22;4.55;;;23.30;99.90;;;;;;4988676;28;20071;-80
2023/07/13 00:32:25;;;;;;;6.70;4.45;;;23.20;99.90;;;;;;4988318;28;20105;-79
2023/07/13 00:34:51;;;;;;;8.95;5.97;;;23.20;99.90;;;;;;4971043;28;20120;-80
2023/07/13 00:37:17;;;;;;;15.95;7.03;;;23.20;99.90;;;;;;4971097;28;20023;-81
2023/07/13 00:39:42;;;;;;;16.33;7.32;;;23.30;99.90;;;;;;4970950;28;20478;-80
2023/07/13 00:42:08;;;;;;;8.68;6.97;;;23.40;99.90;;;;;;4970729;28;20042;-80
2023/07/13 00:44:34;;;;;;;13.55;7.10;;;23.40;99.90;;;;;;4970914;28;20033;-80
2023/07/13 00:47:00;;;;;;;7.55;6.30;;;23.30;99.90;;;;;;4970765;28;20042;-79
2023/07/13 00:49:28;;;;;;;11.00;7.28;;;23.30;99.90;;;;;;4970975;28;20031;-81
2023/07/13 00:52:03;;;;;;;12.80;7.68;;;23.30;99.90;;;;;;4970960;28;20019;-81
2023/07/13 00:54:45;;;;;;;17.92;7.22;;;23.20;99.90;;;;;;4988678;28;20035;-80
2023/07/13 00:57:15;;;;;;;27.83;6.88;;;23.20;99.90;;;;;;4970485;28;20039;-78
2023/07/13 00:59:45;;;;;;;8.52;4.00;;;23.00;99.90;;;;;;4987059;28;20524;-77
2023/07/13 01:02:11;;;;;;;7.70;3.15;;;22.80;99.90;;;;;;4969928;28;20099;-81
2023/07/13 01:04:38;;;;;;;10.30;4.07;;;22.50;99.90;;;;;;4987631;28;20030;-80
2023/07/13 01:07:06;;;;;;;9.75;3.70;;;22.40;99.90;;;;;;4987258;28;20124;-80
2023/07/13 01:09:32;;;;;;;8.15;3.40;;;22.20;99.90;;;;;;4969559;28;20448;-81
2023/07/13 01:11:59;;;;;;;9.52;3.20;;;22.10;99.90;;;;;;4969942;28;20037;-80
2023/07/13 01:14:25;;;;;;;11.77;3.38;;;22.00;99.90;;;;;;4969597;28;20404;-81
2023/07/13 01:16:51;;;;;;;9.25;3.08;;;21.90;99.90;;;;;;4969862;28;20510;-80
2023/07/13 01:19:35;;;;;;;10.85;3.17;;;21.80;99.90;;;;;;4969830;28;20023;-80
2023/07/13 01:22:11;;;;;;;7.82;3.50;;;21.70;99.90;;;;;;4987175;28;20034;-80
2023/07/13 01:24:38;;;;;;;9.20;3.63;;;21.50;99.90;;;;;;4987256;28;20691;-81
2023/07/13 01:27:05;;;;;;;6.53;3.25;;;21.40;99.90;;;;;;4969070;28;20669;-81
2023/07/13 01:29:36;;;;;;;6.80;3.20;;;21.40;99.90;;;;;;4969654;28;20033;-80
2023/07/13 01:32:02;;;;;;;8.85;2.72;;;21.40;99.90;;;;;;4987221;28;20088;-81
2023/07/13 01:34:28;;;;;;;10.00;3.50;;;21.30;99.90;;;;;;4969587;28;20057;-81
2023/07/13 01:36:54;;;;;;;6.40;2.95;;;21.30;99.90;;;;;;4987336;28;20152;-81
2023/07/13 01:39:23;;;;;;;8.90;2.80;;;21.20;99.90;;;;;;4948650;28;20082;-79
2023/07/13 01:41:49;;;;;;;6.47;2.97;;;21.30;99.90;;;;;;4947068;29;20036;-80
2023/07/13 01:44:14;;;;;;;9.23;3.03;;;21.20;99.90;;;;;;4948206;28;20492;-80
2023/07/13 01:46:40;;;;;;;7.65;2.75;;;21.20;99.90;;;;;;4947069;28;20035;-80
2023/07/13 01:49:06;;;;;;;6.03;3.42;;;21.20;99.90;;;;;;4947273;29;20027;-80
2023/07/13 01:51:31;;;;;;;5.85;2.88;;;21.20;99.90;;;;;;4947233;29;20037;-80
2023/07/13 01:53:57;;;;;;;11.27;2.92;;;21.30;99.90;;;;;;4949732;29;20685;-81
2023/07/13 01:56:23;;;;;;;8.32;2.83;;;21.30;99.90;;;;;;4951276;29;20514;-80
2023/07/13 01:58:49;;;;;;;5.60;2.78;;;21.20;99.90;;;;;;4950313;29;20395;-80
2023/07/13 02:01:14;;;;;;;5.40;2.50;;;21.20;99.90;;;;;;4951537;28;20995;-79
2023/07/13 02:03:40;;;;;;;7.88;2.70;;;21.20;99.90;;;;;;4951713;28;20451;-81
2023/07/13 02:06:06;;;;;;;5.97;3.70;;;21.10;99.90;;;;;;4950237;28;20403;-80
2023/07/13 02:08:33;;;;;;;4.55;2.40;;;21.20;99.90;;;;;;4950061;28;20492;-80
2023/07/13 02:10:59;;;;;;;4.22;2.45;;;21.10;99.90;;;;;;4950015;29;20050;-80
2023/07/13 02:13:25;;;;;;;8.50;2.50;;;21.10;99.90;;;;;;4950247;28;20035;-80
2023/07/13 02:15:51;;;;;;;4.65;2.65;;;21.10;99.90;;;;;;4951329;29;20545;-80
2023/07/13 02:18:17;;;;;;;6.35;2.70;;;21.10;99.90;;;;;;4951052;28;20399;-80
2023/07/13 02:20:44;;;;;;;6.30;2.95;;;21.20;99.90;;;;;;4951259;28;20027;-80
2023/07/13 02:23:10;;;;;;;6.53;2.80;;;21.20;99.90;;;;;;4950012;29;20534;-81
2023/07/13 02:25:36;;;;;;;8.48;3.33;;;21.20;99.90;;;;;;4951156;28;20031;-80
2023/07/13 02:28:02;;;;;;;5.10;3.28;;;21.10;99.90;;;;;;4949759;28;20500;-82
2023/07/13 02:30:29;;;;;;;4.47;2.60;;;21.00;99.90;;;;;;4949917;28;21003;-81
2023/07/13 02:32:55;;;;;;;4.55;2.88;;;21.00;99.90;;;;;;4949940;28;20035;-81
2023/07/13 02:35:21;;;;;;;7.00;3.10;;;20.90;99.90;;;;;;4982156;28;20053;-82
2023/07/13 02:37:47;;;;;;;8.43;3.83;;;20.90;99.90;;;;;;4949967;28;20083;-81
2023/07/13 02:40:13;;;;;;;6.50;3.42;;;20.90;99.90;;;;;;4949648;29;20023;-82
2023/07/13 02:42:39;;;;;;;6.38;2.78;;;21.00;99.90;;;;;;4950020;28;20055;-81
2023/07/13 02:45:06;;;;;;;5.63;2.70;;;21.10;99.90;;;;;;4951145;28;20028;-81
2023/07/13 02:47:32;;;;;;;7.25;3.13;;;21.10;99.90;;;;;;4949717;28;20051;-82
2023/07/13 02:49:58;;;;;;;6.45;3.05;;;21.10;99.90;;;;;;4949783;28;20455;-81
2023/07/13 02:52:24;;;;;;;8.48;3.40;;;21.10;99.90;;;;;;4950566;28;20055;-81
2023/07/13 02:54:50;;;;;;;6.30;3.33;;;21.10;99.90;;;;;;4949792;28;20039;-82
2023/07/13 02:57:16;;;;;;;5.18;2.72;;;21.10;99.90;;;;;;4951300;29;20495;-81
2023/07/13 02:59:42;;;;;;;5.93;2.40;;;21.00;99.90;;;;;;4949512;28;20028;-80
2023/07/13 03:02:08;;;;;;;11.00;3.08;;;21.00;99.90;;;;;;4950784;29;20575;-81
2023/07/13 03:04:37;;;;;;;5.60;2.58;;;21.00;99.90;;;;;;4948767;28;20408;-81
2023/07/13 03:07:04;;;;;;;3.30;2.03;;;20.90;99.90;;;;;;4948874;28;20036;-81
2023/07/13 03:09:31;;;;;;;4.43;2.55;;;20.80;99.90;;;;;;4949122;28;20054;-80
2023/07/13 03:11:56;;;;;;;4.38;2.83;;;20.80;99.90;;;;;;4949384;28;20031;-81
2023/07/13 03:14:22;;;;;;;6.40;3.28;;;20.80;99.90;;;;;;4950411;29;20081;-79
2023/07/13 03:16:49;;;;;;;6.57;2.45;;;20.70;99.90;;;;;;4950423;29;20451;-79
2023/07/13 03:19:14;;;;;;;7.95;2.88;;;20.70;99.90;;;;;;4949337;28;20154;-80
2023/07/13 03:21:40;;;;;;;6.50;3.10;;;20.80;99.90;;;;;;4950292;28;20106;-80
2023/07/13 03:24:06;;;;;;;4.85;2.45;;;20.70;99.90;;;;;;4949074;28;20059;-80
2023/07/13 03:26:32;;;;;;;13.57;3.08;;;20.70;99.90;;;;;;4949041;28;20432;-80
2023/07/13 03:28:58;;;;;;;7.88;3.20;;;20.70;99.90;;;;;;4948858;28;20039;-79
2023/07/13 03:31:26;;;;;;;5.63;3.28;;;20.70;99.90;;;;;;4950184;28;20027;-80
2023/07/13 03:33:52;;;;;;;5.40;3.38;;;20.80;99.90;;;;;;4950481;28;20027;-80
2023/07/13 03:36:21;;;;;;;6.00;3.22;;;20.80;99.90;;;;;;4950447;28;20027;-80
2023/07/13 03:38:48;;;;;;;6.38;3.85;;;20.80;99.90;;;;;;4948967;28;20047;-80
2023/07/13 03:41:15;;;;;;;6.72;3.60;;;20.80;99.90;;;;;;4948852;29;20085;-80
2023/07/13 03:43:41;;;;;;;6.45;4.50;;;20.80;99.90;;;;;;4948887;29;20027;-82
2023/07/13 03:46:07;;;;;;;12.02;4.13;;;20.90;99.90;;;;;;4950136;28;20027;-81
2023/07/13 03:48:33;;;;;;;10.88;5.30;;;20.90;99.90;;;;;;4949459;29;20427;-80
2023/07/13 03:50:58;;;;;;;7.70;4.53;;;21.00;99.90;;;;;;4948447;28;20071;-80
2023/07/13 03:53:24;;;;;;;7.30;4.18;;;21.00;99.90;;;;;;4949754;29;20028;-80
2023/07/13 03:55:50;;;;;;;7.85;4.13;;;21.10;99.90;;;;;;4948404;29;20041;-81
2023/07/13 03:58:27;;;;;;;8.93;4.20;;;21.20;99.90;;;;;;4948255;28;20059;-80
2023/07/13 04:00:54;;;;;;;5.18;3.53;;;21.30;99.90;;;;;;4948384;28;20031;-81
2023/07/13 04:03:20;;;;;;;12.63;4.13;;;21.40;99.90;;;;;;4948811;29;20495;-81
2023/07/13 04:05:46;;;;;;;13.38;3.97;;;21.50;99.90;;;;;;4948707;29;20035;-79
2023/07/13 04:08:12;;;;;;;6.72;3.80;;;21.60;99.90;;;;;;4947861;29;20042;-80
2023/07/13 04:10:38;;;;;;;5.78;3.30;;;21.70;99.90;;;;;;4948547;28;20430;-80
2023/07/13 04:13:04;;;;;;;8.27;3.17;;;21.90;99.90;;;;;;4949743;28;20023;-80
2023/07/13 04:15:31;;;;;;;3.70;2.67;;;22.00;99.90;;;;;;4948596;28;20046;-80
2023/07/13 04:17:57;;;;;;;6.03;3.60;;;22.10;99.90;;;;;;4948010;28;20395;-80
2023/07/13 04:20:25;;;;;;;7.72;3.53;;;22.30;99.90;;;;;;4948240;29;20024;-81
2023/07/13 04:22:51;;;;;;;11.57;3.10;;;22.40;99.90;;;;;;4981215;28;20182;-80
2023/07/13 04:25:17;;;;;;;10.65;4.47;;;22.50;99.90;;;;;;4948308;28;20400;-81
2023/07/13 04:27:42;;;;;;;4.50;3.30;;;22.60;99.90;;;;;;4948079;28;20118;-81
2023/07/13 04:30:08;;;;;;;5.05;3.45;;;22.70;99.90;;;;;;4947869;29;20035;-80
2023/07/13 04:32:34;;;;;;;5.95;3.85;;;22.90;99.90;;;;;;4947870;28;20122;-81
2023/07/13 04:35:00;;;;;;;5.95;4.07;;;23.10;99.90;;;;;;4949124;29;20126;-81
2023/07/13 04:37:26;;;;;;;7.07;3.20;;;23.20;99.90;;;;;;4952667;28;20503;-80
2023/07/13 04:39:52;;;;;;;4.93;3.17;;;23.40;99.90;;;;;;4970419;28;20031;-81
2023/07/13 04:42:18;;;;;;;4.70;3.13;;;23.50;99.90;;;;;;4987720;28;20119;-81
2023/07/13 04:44:51;;;;;;;7.60;3.58;;;23.70;99.90;;;;;;4970548;28;20030;-81
2023/07/13 04:47:17;;;;;;;7.18;3.60;;;23.80;99.90;;;;;;4987574;28;20046;-81
2023/07/13 04:49:44;;;;;;;7.47;3.17;;;23.80;99.90;;;;;;4987707;28;20026;-81
2023/07/13 04:52:09;;;;;;;4.53;2.80;;;23.80;99.90;;;;;;4986043;28;20087;-81
2023/07/13 04:54:37;;;;;;;10.82;2.97;;;23.70;99.90;;;;;;4969650;28;20026;-81
2023/07/13 04:57:04;;;;;;;5.32;3.20;;;23.70;99.90;;;;;;4987167;28;20436;-80
2023/07/13 04:59:30;;;;;;;10.80;3.33;;;23.70;99.90;;;;;;4970132;28;20048;-82
2023/07/13 05:01:56;;;;;;;9.05;3.45;;;23.60;99.90;;;;;;4987219;28;20027;-80
2023/07/13 05:04:22;;;;;;;5.40;3.08;;;23.50;99.90;;;;;;4969987;28;20037;-81
2023/07/13 05:06:47;;;;;;;7.65;3.08;;;23.50;99.90;;;;;;4987554;28;20563;-80
2023/07/13 05:09:13;;;;;;;4.18;2.92;;;23.40;99.90;;;;;;4987368;28;20537;-82
2023/07/13 05:11:39;;;;;;;9.73;3.28;;;23.40;99.90;;;;;;4969785;28;20068;-81
2023/07/13 05:14:05;;;;;;;5.97;2.53;;;23.40;99.90;;;;;;4970133;28;20176;-81
2023/07/13 05:16:32;;;;;;;16.63;3.25;;;23.40;99.90;;;;;;4987215;28;20117;-80
2023/07/13 05:18:58;;;;;;;8.75;2.53;;;23.40;99.90;;;;;;4969662;28;20026;-81
2023/07/13 05:21:24;;;;;;;5.70;3.03;;;23.40;99.90;;;;;;4987044;28;20031;-81
2023/07/13 05:23:50;;;;;;;9.85;3.38;;;23.30;99.90;;;;;;4969896;28;20038;-80
2023/07/13 05:26:16;;;;;;;11.25;4.18;;;23.30;99.90;;;;;;4987022;28;20777;-81
2023/07/13 05:28:42;;;;;;;18.65;5.53;;;23.20;99.90;;;;;;4970692;28;20045;-82
2023/07/13 05:31:09;;;;;;;13.52;5.53;;;23.20;99.90;;;;;;4973088;28;20030;-82
2023/07/13 05:33:35;;;;;;;11.48;5.78;;;23.10;99.90;;;;;;4990574;28;20050;-80
2023/07/13 05:36:01;;;;;;;10.07;5.60;;;23.00;99.90;;;;;;4990060;28;20104;-81
2023/07/13 05:38:27;;;;;;;15.93;6.63;;;22.80;99.90;;;;;;4973030;28;20062;-80
2023/07/13 05:40:55;;;;;;;9.00;5.85;;;22.80;99.90;;;;;;4990538;28;20395;-82
2023/07/13 05:43:22;;;;;;;10.48;6.38;;;22.80;99.90;;;;;;4972700;28;20510;-80
2023/07/13 05:45:49;;;;;;;13.65;6.25;;;22.80;99.90;;;;;;4990333;28;20054;-80
2023/07/13 05:48:15;;;;;;;10.45;6.28;;;22.90;99.90;;;;;;4972451;28;20590;-80
2023/07/13 05:50:41;;;;;;;16.55;7.28;;;22.80;99.90;;;;;;4972872;28;20109;-82
2023/07/13 05:53:07;;;;;;;18.00;6.50;;;22.80;99.90;;;;;;4990312;28;20030;-81
2023/07/13 05:55:33;;;;;;;27.55;6.78;;;22.80;99.90;;;;;;4972879;28;20080;-81
2023/07/13 05:58:00;;;;;;;15.02;6.32;;;22.70;99.90;;;;;;4990074;28;20076;-81
2023/07/13 06:00:26;;;;;;;9.73;5.90;;;22.60;99.90;;;;;;4990015;28;20030;-81
2023/07/13 06:02:52;;;;;;;13.10;6.15;;;22.60;99.90;;;;;;4972794;28;20035;-82
2023/07/13 06:05:17;;;;;;;15.45;5.88;;;22.60;99.90;;;;;;4990328;28;20030;-82
2023/07/13 06:07:43;;;;;;;14.00;5.38;;;22.60;99.90;;;;;;4972825;28;20524;-81
2023/07/13 06:10:09;;;;;;;17.20;5.35;;;22.50;99.90;;;;;;4972447;28;20035;-81
2023/07/13 06:12:35;;;;;;;9.43;4.85;;;22.40;99.90;;;;;;4972569;28;20502;-81
2023/07/13 06:15:00;;;;;;;10.00;5.68;;;22.40;99.90;;;;;;4972710;28;20041;-82
2023/07/13 06:17:26;;;;;;;11.48;5.50;;;22.30;99.90;;;;;;4972483;28;20032;-81
2023/07/13 06:19:52;;;;;;;7.30;4.90;;;22.30;99.90;;;;;;4972473;28;20064;-82
2023/07/13 06:22:17;;;;;;;9.68;5.10;;;22.20;99.90;;;;;;4972374;28;20053;-81
2023/07/13 06:24:43;;;;;;;11.57;5.18;;;22.10;99.90;;;;;;4990197;28;20526;-82
2023/07/13 06:27:09;;;;;;;9.90;5.32;;;22.00;99.90;;;;;;4989952;28;20030;-82
2023/07/13 06:29:34;;;;;;;12.85;4.38;;;21.90;99.90;;;;;;4989922;28;20110;-82
2023/07/13 06:32:00;;;;;;;8.95;3.67;;;21.80;99.90;;;;;;5057430;28;20030;-82
2023/07/13 06:34:26;;;;;;;16.30;3.33;;;21.70;99.90;;;;;;4989461;28;20035;-80
2023/07/13 06:36:51;;;;;;;16.40;3.08;;;21.50;99.90;;;;;;4972345;28;20030;-81
2023/07/13 06:39:17;;;;;;;8.57;2.67;;;21.40;99.90;;;;;;4971525;28;20507;-82
2023/07/13 06:41:43;;;;;;;13.70;1.88;;;21.30;99.90;;;;;;4972038;28;20022;-82
2023/07/13 06:44:08;;;;;;;5.90;2.22;;;21.20;99.90;;;;;;4972126;28;20035;-82
2023/07/13 06:46:34;;;;;;;8.75;1.90;;;21.10;99.90;;;;;;4971780;28;20029;-82
2023/07/13 06:49:00;;;;;;;14.30;2.17;;;21.00;99.90;;;;;;4972230;28;20137;-81
2023/07/13 06:51:25;;;;;;;6.05;1.70;;;21.00;99.90;;;;;;4972226;28;20065;-81
2023/07/13 06:53:51;;;;;;;5.53;1.98;;;20.90;99.90;;;;;;4971936;28;20056;-81
2023/07/13 06:56:17;;;;;;;4.22;1.50;;;20.80;99.90;;;;;;4971873;28;20026;-82
2023/07/13 06:58:43;;;;;;;9.57;2.80;;;20.80;99.90;;;;;;4971933;28;20019;-82
2023/07/13 07:01:09;;;;;;;5.55;1.80;;;20.70;99.90;;;;;;4989316;28;20353;-81
2023/07/13 07:03:34;;;;;;;5.47;1.88;;;20.70;99.90;;;;;;4971397;28;20031;-81
2023/07/13 07:06:27;;;;;;;3.47;1.50;;;20.70;99.90;;;;;;4989128;28;20517;-81
2023/07/13 07:08:53;;;;;;;5.97;1.92;;;20.60;99.90;;;;;;4989610;28;20503;-81
2023/07/13 07:11:22;;;;;;;6.07;1.58;;;20.60;99.90;;;;;;4971332;28;20034;-81
2023/07/13 07:13:48;;;;;;;6.55;2.75;;;20.60;99.90;;;;;;4971345;28;20484;-80
2023/07/13 07:16:14;;;;;;;4.85;1.30;;;20.60;99.90;;;;;;4971043;28;20063;-81
2023/07/13 07:18:40;;;;;;;3.55;1.30;;;20.40;99.90;;;;;;4971446;28;20030;-80
2023/07/13 07:21:06;;;;;;;4.63;1.10;;;20.10;99.90;;;;;;4971399;28;20540;-81
2023/07/13 07:23:32;;;;;;;3.10;0.70;;;19.90;99.90;;;;;;4970978;28;20109;-81
2023/07/13 07:25:57;;;;;;;4.70;1.13;;;19.80;99.90;;;;;;4971419;28;20592;-81
2023/07/13 07:28:23;;;;;;;5.90;1.23;;;19.80;99.90;;;;;;4970829;28;20088;-82
2023/07/13 07:30:53;;;;;;;1.42;0.68;;;19.80;99.90;;;;;;4971162;28;20062;-81
2023/07/13 07:33:19;;;;;;;4.00;0.75;;;19.90;99.90;;;;;;4988538;28;20034;-81
2023/07/13 07:35:44;;;;;;;4.03;0.90;;;20.00;99.90;;;;;;4971121;28;20031;-81
2023/07/13 07:38:10;;;;;;;5.18;1.02;;;20.10;99.90;;;;;;4988426;28;20058;-81
2023/07/13 07:40:40;;;;;;;2.92;0.85;;;20.20;99.90;;;;;;4971597;28;20030;-81
2023/07/13 07:43:07;;;;;;;3.22;0.80;;;20.20;99.90;;;;;;4970852;28;20045;-81
2023/07/13 07:45:32;;;;;;;1.70;0.90;;;20.40;99.90;;;;;;4988480;28;20022;-80
2023/07/13 07:47:59;;;;;;;2.08;0.90;;;20.60;99.90;;;;;;4971132;28;20419;-82
2023/07/13 07:50:28;;;;;;;3.92;0.80;;;20.70;99.90;;;;;;4970701;28;20034;-82
2023/07/13 07:52:57;;;;;;;4.30;1.25;;;20.80;99.90;;;;;;4970136;28;20463;-82
2023/07/13 07:55:26;;;;;;;3.63;1.38;;;20.80;99.90;;;;;;4970942;28;20026;-82
2023/07/13 07:57:52;;;;;;;2.38;0.90;;;20.90;99.90;;;;;;4970587;28;20042;-82
2023/07/13 08:00:18;;;;;;;3.70;1.05;;;21.20;99.90;;;;;;4970889;28;20043;-82
2023/07/13 08:02:45;;;;;;;2.20;0.98;;;21.40;99.90;;;;;;4970709;28;20128;-83
2023/07/13 08:05:10;;;;;;;2.60;0.80;;;21.70;99.90;;;;;;4970602;28;20453;-82
2023/07/13 08:07:38;;;;;;;3.45;1.08;;;21.80;99.90;;;;;;4988085;28;20023;-83
2023/07/13 08:10:04;;;;;;;3.80;1.13;;;22.00;99.90;;;;;;4970835;28;20049;-82
2023/07/13 08:12:33;;;;;;;3.20;0.90;;;22.40;99.90;;;;;;4988169;28;20052;-82
2023/07/13 08:15:00;;;;;;;2.45;1.08;;;23.00;99.90;;;;;;4970738;28;20139;-83
2023/07/13 08:17:26;;;;;;;4.47;0.98;;;23.90;99.90;;;;;;4970713;28;20545;-82
2023/07/13 08:19:52;;;;;;;3.72;1.15;;;24.60;99.90;;;;;;4970670;28;20030;-80
2023/07/13 08:22:18;;;;;;;3.10;1.25;;;25.30;99.90;;;;;;4970550;28;20379;-82
2023/07/13 08:24:43;;;;;;;3.28;1.13;;;25.90;99.90;;;;;;4970555;28;20128;-81
2023/07/13 08:27:11;;;;;;;2.88;1.30;;;26.10;99.90;;;;;;4970055;28;20060;-82
2023/07/13 08:29:37;;;;;;;4.82;2.53;;;26.30;99.90;;;;;;4970471;28;20022;-81
2023/07/13 08:32:04;;;;;;;5.18;1.60;;;26.60;99.90;;;;;;4987595;28;20517;-81
2023/07/13 08:34:30;;;;;;;6.93;1.95;;;27.00;99.90;;;;;;4969964;28;20038;-81
2023/07/13 08:36:55;;;;;;;5.82;1.60;;;27.40;99.90;;;;;;4970424;28;20029;-81
2023/07/13 08:39:21;;;;;;;4.40;1.13;;;27.90;99.90;;;;;;4987378;28;20054;-82
2023/07/13 08:41:58;;;;;;;2.58;1.50;;;28.60;99.90;;;;;;4987686;28;20035;-81
2023/07/13 08:44:39;;;;;;;6.30;1.60;;;28.90;99.90;;;;;;4969714;28;20029;-82
2023/07/13 08:47:06;;;;;;;2.33;1.20;;;29.30;99.30;;;;;;4986986;28;20712;-82
2023/07/13 08:49:33;;;;;;;5.50;1.45;;;29.60;97.70;;;;;;4970037;28;20034;-81
2023/07/13 08:52:26;;;;;;;2.08;1.05;;;29.70;96.50;;;;;;4970170;28;20096;-82
2023/07/13 08:54:55;;;;;;;3.25;1.35;;;29.70;95.50;;;;;;4970317;28;20038;-81
2023/07/13 08:57:31;;;;;;;5.22;1.45;;;29.50;95.80;;;;;;4970021;28;20034;-81
2023/07/13 08:59:58;;;;;;;4.90;1.20;;;29.70;95.60;;;;;;4969981;28;20141;-82
2023/07/13 09:02:52;;;;;;;4.20;1.17;;;30.00;94.20;;;;;;4987120;28;20038;-82
2023/07/13 09:05:34;;;;;;;3.03;0.98;;;30.10;92.70;;;;;;4987335;28;20144;-81
2023/07/13 09:08:24;;;;;;;5.25;1.63;;;30.20;93.20;;;;;;4987233;28;20244;-81
2023/07/13 09:10:56;;;;;;;2.33;0.98;;;30.60;90.40;;;;;;4987457;28;20058;-82
2023/07/13 09:13:43;;;;;;;4.03;1.30;;;31.00;84.20;;;;;;4987490;28;20026;-81
2023/07/13 09:16:11;;;;;;;3.13;1.65;;;31.30;83.60;;;;;;4969649;28;20056;-82
2023/07/13 09:18:45;;;;;;;2.75;1.08;;;31.60;80.30;;;;;;4987092;28;20347;-81
2023/07/13 09:21:31;;;;;;;4.65;1.30;;;31.80;78.90;;;;;;4987397;28;20057;-81
2023/07/13 09:24:19;;;;;;;4.70;1.80;;;32.00;77.00;;;;;;4986957;28;20030;-83
2023/07/13 09:26:45;;;;;;;2.15;1.35;;;31.80;74.70;;;;;;4986758;28;20060;-83
2023/07/13 09:29:29;;;;;;;4.40;1.55;;;31.70;73.40;;;;;;4986894;28;20038;-81
2023/07/13 09:31:59;;;;;;;5.22;1.23;;;31.60;73.70;;;;;;4969404;28;20091;-81
2023/07/13 09:34:25;;;;;;;1.88;1.17;;;31.50;75.20;;;;;;4969509;28;20116;-81
2023/07/13 09:36:51;;;;;;;7.63;1.95;;;31.80;73.00;;;;;;4969520;28;20101;-82
2023/07/13 09:39:38;;;;;;;2.70;1.30;;;32.40;73.60;;;;;;4969246;28;20495;-82
2023/07/13 09:42:17;;;;;;;3.30;1.50;;;33.20;73.70;;;;;;4986634;28;20057;-82
2023/07/13 09:45:02;;;;;;;3.47;1.52;;;33.40;68.20;;;;;;4969386;28;20030;-82
2023/07/13 09:47:31;;;;;;;4.97;2.03;;;32.60;68.10;;;;;;4969419;28;20026;-80
2023/07/13 09:50:05;;;;;;;3.00;1.13;;;32.40;69.40;;;;;;4986903;28;20491;-80
2023/07/13 09:52:43;;;;;;;4.53;1.73;;;32.20;70.20;;;;;;4969179;28;20056;-81
2023/07/13 09:55:26;;;;;;;6.00;1.60;;;32.60;67.90;;;;;;4969417;28;20038;-79
2023/07/13 09:57:52;;;;;;;5.15;1.38;;;33.20;66.40;;;;;;4969004;28;20083;-79
2023/07/13 10:00:29;;;;;;;4.05;1.83;;;33.60;63.90;;;;;;4986484;28;20054;-79
2023/07/13 10:04:01;;;;;;;10.00;1.58;;;34.40;64.60;;;;;;5104419;27;20171;-80
2023/07/13 10:06:27;;;;;;;2.70;1.30;;;34.80;64.30;;;;;;5106952;28;20057;-80
2023/07/13 10:08:55;;;;;;;2.85;1.52;;;34.50;62.50;;;;;;5105608;28;20047;-81
2023/07/13 10:11:29;;;;;;;4.05;1.50;;;34.20;61.70;;;;;;5106900;28;20480;-79
2023/07/13 10:13:56;;;;;;;2.65;1.38;;;33.70;63.40;;;;;;5105295;28;20381;-80
2023/07/13 10:16:27;;;;;;;4.00;1.45;;;33.10;64.30;;;;;;5105551;28;20032;-81
2023/07/13 10:30:50;;;;;;;;;;;32.60;65.60;;;;;;5068675;28;20815;-83
2023/07/13 10:33:15;;;;;;;2.55;1.20;;;32.00;66.70;;;;;;5067605;28;19944;-83
2023/07/13 10:35:44;;;;;;;5.40;1.00;;;31.70;68.40;;;;;;5066365;28;20059;-83
2023/07/13 10:38:17;;;;;;;2.10;1.33;;;31.30;68.90;;;;;;5068131;28;20032;-84
2023/07/13 10:41:06;;;;;;;3.90;1.20;;;31.20;69.00;;;;;;5066667;28;20087;-83
2023/07/13 10:43:41;;;;;;;3.58;1.27;;;31.00;69.90;;;;;;5068141;28;20061;-83
2023/07/13 10:46:10;;;;;;;3.45;1.02;;;30.80;70.40;;;;;;5066737;28;20028;-82
2023/07/13 10:48:37;;;;;;;3.55;1.80;;;30.70;72.70;;;;;;5066601;28;20442;-84
2023/07/13 10:51:06;;;;;;;4.45;1.83;;;30.40;75.20;;;;;;5065775;28;20024;-83
2023/07/13 10:53:36;;;;;;;5.63;1.77;;;30.20;79.90;;;;;;5067084;28;20665;-82
2023/07/13 10:56:11;;;;;;;3.97;2.30;;;30.00;81.10;;;;;;5067819;28;20039;-82
2023/07/13 10:58:41;;;;;;;3.40;1.92;;;29.80;81.90;;;;;;5066331;28;20032;-83
2023/07/13 11:01:16;;;;;;;7.45;2.50;;;29.70;88.00;;;;;;5067464;28;20039;-83
2023/07/13 11:03:56;;;;;;;4.00;2.10;;;29.70;90.60;;;;;;5065652;28;20118;-82
2023/07/13 11:06:36;;;;;;;5.13;2.03;;;29.60;90.00;;;;;;5066247;28;20021;-83
2023/07/13 11:09:36;;;;;;;7.30;1.80;;;29.60;86.80;;;;;;5065839;28;20044;-84
2023/07/13 11:12:17;;;;;;;7.75;2.05;;;29.60;90.10;;;;;;5067372;28;20029;-84
2023/07/13 11:15:06;;;;;;;5.07;2.17;;;29.60;91.70;;;;;;5067761;28;20484;-84
2023/07/13 11:17:32;;;;;;;6.93;2.38;;;29.40;89.30;;;;;;5068186;28;20020;-85
2023/07/13 11:20:21;;;;;;;4.45;2.33;;;29.30;90.70;;;;;;5067968;28;20037;-84
2023/07/13 11:22:51;;;;;;;6.40;2.25;;;29.40;91.30;;;;;;5066930;28;20501;-85
2023/07/13 11:25:27;;;;;;;5.93;2.10;;;29.20;90.50;;;;;;5068111;28;20029;-84
2023/07/13 11:28:11;;;;;;;5.07;1.90;;;29.20;93.00;;;;;;5067795;28;20493;-84
2023/07/13 11:30:46;;;;;;;5.47;2.20;;;29.30;91.50;;;;;;5061261;28;20520;-85
2023/07/13 11:33:17;;;;;;;6.28;2.83;;;29.30;90.20;;;;;;5054689;28;20385;-85
2023/07/13 11:36:02;;;;;;;3.38;1.70;;;29.30;90.20;;;;;;5054667;28;20028;-85
2023/07/13 11:38:42;;;;;;;4.28;1.80;;;29.40;90.70;;;;;;5055273;28;20656;-85
2023/07/13 11:41:19;;;;;;;3.97;2.17;;;29.40;88.50;;;;;;5054214;28;20544;-85
2023/07/13 11:43:49;;;;;;;5.20;2.05;;;29.40;90.80;;;;;;5055219;28;20036;-86
2023/07/13 11:46:19;;;;;;;3.75;2.00;;;29.40;90.30;;;;;;5054076;28;20060;-85
2023/07/13 11:48:46;;;;;;;4.32;2.05;;;29.50;90.80;;;;;;5054994;28;20029;-86
2023/07/13 11:51:37;;;;;;;4.60;1.48;;;29.40;89.30;;;;;;5055013;28;20068;-84
2023/07/13 11:54:07;;;;;;;4.10;1.95;;;29.40;88.90;;;;;;5053629;28;20090;-86
2023/07/13 11:56:34;;;;;;;7.65;2.00;;;29.40;87.60;;;;;;5055057;28;20021;-84
2023/07/13 11:59:04;;;;;;;7.32;1.80;;;29.40;83.20;;;;;;5053978;28;20037;-85
2023/07/13 12:01:34;;;;;;;5.53;1.38;;;29.40;85.60;;;;;;5055054;28;20058;-84
2023/07/13 12:04:06;;;;;;;5.65;1.58;;;29.40;86.30;;;;;;5053772;28;20044;-85
2023/07/13 12:06:36;;;;;;;2.42;1.50;;;29.30;85.70;;;;;;5055036;28;20040;-86
2023/07/13 12:09:13;;;;;;;4.90;1.63;;;29.20;87.40;;;;;;5055038;28;20393;-85
2023/07/13 12:11:41;;;;;;;6.70;2.15;;;29.30;85.00;;;;;;5054045;28;20021;-85
2023/07/13 12:14:17;;;;;;;2.70;1.50;;;29.30;86.30;;;;;;5054956;28;20036;-85
2023/07/13 12:16:45;;;;;;;4.90;1.48;;;29.40;84.00;;;;;;5054719;28;20029;-85
2023/07/13 12:19:29;;;;;;;5.18;1.55;;;29.40;84.70;;;;;;5053540;28;20045;-84
2023/07/13 12:21:59;;;;;;;2.50;1.35;;;29.50;85.10;;;;;;5054575;28;20017;-85
2023/07/13 12:24:26;;;;;;;3.75;1.58;;;29.50;86.60;;;;;;5053435;28;20040;-85
2023/07/13 12:27:25;;;;;;;2.53;1.48;;;29.60;84.20;;;;;;5053220;28;20029;-85
2023/07/13 12:30:20;;;;;;;2.50;1.50;;;29.70;80.60;;;;;;5050545;28;20045;-85
2023/07/13 12:33:08;;;;;;;3.53;1.63;;;29.60;81.90;;;;;;5054280;28;20032;-85
2023/07/13 12:35:45;;;;;;;3.97;1.70;;;29.70;81.40;;;;;;5054546;28;20017;-85
2023/07/13 12:38:11;;;;;;;3.05;1.40;;;29.80;82.70;;;;;;5053288;28;20062;-85
2023/07/13 12:40:38;;;;;;;2.30;1.13;;;29.80;80.30;;;;;;5053947;28;20037;-85
2023/07/13 12:43:06;;;;;;;5.90;1.77;;;29.80;78.80;;;;;;5053398;28;20029;-85
2023/07/13 12:45:32;;;;;;;3.42;1.48;;;29.90;77.60;;;;;;5054185;28;20032;-84
2023/07/13 12:48:20;;;;;;;3.60;1.40;;;29.90;75.10;;;;;;5052882;28;20089;-86
2023/07/13 12:50:52;;;;;;;4.10;1.40;;;30.00;74.60;;;;;;5053014;28;20036;-86
2023/07/13 12:53:28;;;;;;;2.00;1.40;;;30.00;74.30;;;;;;5038863;28;20032;-85
2023/07/13 12:55:59;;;;;;;3.75;1.20;;;30.10;75.40;;;;;;5033220;28;20020;-85
2023/07/13 12:58:27;;;;;;;6.28;1.50;;;30.20;71.80;;;;;;5040180;28;20485;-85
2023/07/13 13:00:58;;;;;;;4.20;1.55;;;30.20;72.50;;;;;;5054242;28;20044;-85
2023/07/13 13:03:32;;;;;;;3.40;1.50;;;30.10;71.10;;;;;;5044637;28;20096;-85
2023/07/13 13:06:00;;;;;;;2.72;1.10;;;30.10;73.50;;;;;;5032723;28;20037;-86
2023/07/13 13:08:26;;;;;;;7.18;1.33;;;30.00;71.40;;;;;;5033393;28;20033;-84